الصفحة الرئيسية
METAR-TAF:

METAR-TAF

مطار :

مطار كوناكري الدولي

كوناكري, غينيا

دائرة عرض: 09-34N, خط طول: 013-37W, ارتفاع: 26 متر

مراقبة الطقس الحالي

تاريخ ووقت الإصدار 26 دقيقة قبل الساعة 07:00UTC
ريح 6 عقدة من الشرق/الشمال الشرقي
درجة الحرارة 25°درجة مئوية
الرطوبة 100%
ضغط 1013 hPa
الرؤية: 8000 متر
غيوم مفككة على ارتفاع 1300 قدم
غيوم متفرقة على ارتفاع 10000 قدم
مطر خفيف

METAR: GUCY 240700Z 07006KT 8000 -RA BKN013 SCT100 25/25 Q1013 NOSIG

زمن: 07:26 (07:26 UTC)

توقعات

تاريخ ووقت الإصدار 2ساعات و 26 دقيقة قبل الساعة 05:00UTC
التوقعات صالحة من24 الساعة 06 UTC إلى 25 الساعة 12 UTC
ريح 6 عقدة من الغرب
الرؤية 10 كم أو أكثر
غيوم متفرقة على ارتفاع 1500 قدم
غيوم متفرقة على ارتفاع 11000 قدم
مؤقت
من 24 الساعة 06 UTC إلى 24 الساعة 10 UTC
ريح 2 عقدةمن اتجاهات متغيرة
الرؤية: 6000 متر
غيوم مفككة على ارتفاع 1300 قدم
غيوم قليلة على ارتفاع 2300 قدم, مزنة ركامية.
غيوم مفككة على ارتفاع 10000 قدم
عاصفة رعدية, مطر خفيف

TAF: GUCY 240500Z 2406/2512 28006KT 9999 SCT015 SCT110 TEMPO 2406/2410 16014KT 6000 -TSRA BKN013 FEW023CB BKN100 BECMH 2504/2508 VRB02KT

أرصاد الطقس والتوقعات من أكثر من 4000 مطار (تقارير الطقس للمطار METAR والتنبؤ بالطقس بالمطارTAF).

المحطات المتاحة هي النقط الصفراء والحمراء على الخريطة.

حرك المؤشر فوق النقطة لمعرفة اسم المحطة.

ثم انقر لمعرفة أرصاد وتوقعات الطقس.

لتغيير الخارطة: اضغط على الأزرار الخضراء مع رمز الصليب الأسود للتكبير. على الزر الأخضر مع شرطة للتصغير، أو على الأسهم الخضراء للخرائط المجاورة.


METAR-TAF: